aviador You're here:

LCLK Decoded Metar

LARNACA in CYPRUS
Report Time2018-01-20 05:00:00
UTC Time2018-01-20 05:10:46
Flight Rules vfr VFR
Wind310° at 05 kt
W.Decomp.*RWY 22: 0.3 kt HW 5.0 kt RCW
W.Rank310° ranks 4
Current wind is below 310° avg. (5.2)
Visibility9999 m
Phenomena:N/A
Clouds:Few 030 Hf
Expected CloudBase > 1,200 ft AGL from Temp-Dew spread
CeilingNone
Temp06°C (ISA -9)
Dew Point03°C (81% RH)
AAT2.7°C
QNH1021 hPa
Density Alt-1,247 ft
Elevation7 ft
Report Wrong Elevation
Raw Report
METAR LCLK 200500Z 31005KT 9999 FEW030 06/03 Q1021 NOSIG=

Extra information for LCLK:More info

Metar Taf Metar & Taf Last 4 Metars F.Rules Stats Wind Profile Meteogram Temp Stats Airport Information Weather charts Add Link Nearby VenuesMetar ALERT Operation Metar Decoded Social comments